createdAt,value
2023-05-16T00:00:40.586Z,100.00
2023-05-16T00:03:29.154Z,100.00
2023-05-16T00:06:17.655Z,100.00
2023-05-16T00:09:05.587Z,100.00
2023-05-16T00:11:53.569Z,100.00
2023-05-16T00:14:42.889Z,100.00
2023-05-16T00:17:30.934Z,100.00
2023-05-16T00:20:23.208Z,100.00
2023-05-16T00:23:11.298Z,100.00
2023-05-16T00:25:59.374Z,100.00
2023-05-16T00:28:47.251Z,100.00
2023-05-16T00:31:36.711Z,100.00
2023-05-16T00:34:24.813Z,100.00
2023-05-16T00:37:12.804Z,100.00
2023-05-16T00:40:00.776Z,100.00
2023-05-16T00:42:49.146Z,100.00
2023-05-16T00:45:37.143Z,100.00
2023-05-16T00:48:26.844Z,100.00
2023-05-16T00:51:14.976Z,100.00
2023-05-16T00:54:04.175Z,100.00
2023-05-16T00:56:52.127Z,100.00
2023-05-16T00:59:40.236Z,100.00
2023-05-16T01:02:30.100Z,100.00
2023-05-16T01:05:19.878Z,100.00
2023-05-16T01:08:07.839Z,100.00
2023-05-16T01:11:03.457Z,100.00
2023-05-16T01:14:01.890Z,100.00
2023-05-16T01:16:56.162Z,100.00
2023-05-16T01:20:05.083Z,100.00
2023-05-16T01:23:18.575Z,100.00
2023-05-16T01:26:22.493Z,100.00
2023-05-16T01:29:10.924Z,100.00
2023-05-16T01:31:59.307Z,100.00
2023-05-16T01:34:47.399Z,100.00
2023-05-16T01:37:40.890Z,100.00
2023-05-16T01:40:36.613Z,100.00
2023-05-16T01:43:32.397Z,100.00
2023-05-16T01:46:26.587Z,100.00
2023-05-16T01:49:21.369Z,100.00
2023-05-16T01:52:12.930Z,100.00
2023-05-16T01:55:01.831Z,100.00
2023-05-16T01:57:51.265Z,100.00
2023-05-16T02:00:41.318Z,100.00
2023-05-16T02:03:29.362Z,100.00
2023-05-16T02:06:17.240Z,100.00
2023-05-16T02:09:05.318Z,100.00
2023-05-16T02:11:53.265Z,100.00
2023-05-16T02:14:41.259Z,100.00
2023-05-16T02:17:30.549Z,100.00
2023-05-16T02:20:18.596Z,100.00
2023-05-16T02:23:06.631Z,100.00
2023-05-16T02:25:54.616Z,100.00
2023-05-16T02:28:42.538Z,100.00
2023-05-16T02:31:31.724Z,100.00
2023-05-16T02:34:21.404Z,100.00
2023-05-16T02:37:10.743Z,100.00
2023-05-16T02:40:00.557Z,100.00
2023-05-16T02:42:48.590Z,100.00
2023-05-16T02:45:36.655Z,100.00
2023-05-16T02:48:24.630Z,100.00
2023-05-16T02:51:13.969Z,100.00
2023-05-16T02:54:01.903Z,100.00
2023-05-16T02:56:49.983Z,100.00
2023-05-16T02:59:40.740Z,100.00
2023-05-16T03:02:29.019Z,100.00
2023-05-16T03:05:17.247Z,100.00
2023-05-16T03:08:06.892Z,100.00
2023-05-16T03:10:54.830Z,100.00
2023-05-16T03:13:42.823Z,100.00
2023-05-16T03:16:30.819Z,100.00
2023-05-16T03:19:18.780Z,100.00
2023-05-16T03:22:06.878Z,100.00
2023-05-16T03:24:56.502Z,100.00
2023-05-16T03:27:44.446Z,100.00
2023-05-16T03:30:32.403Z,100.00
2023-05-16T03:33:20.522Z,100.00
2023-05-16T03:36:09.236Z,100.00
2023-05-16T03:38:57.152Z,100.00
2023-05-16T03:41:46.533Z,100.00
2023-05-16T03:44:34.431Z,100.00
2023-05-16T03:47:22.417Z,100.00
2023-05-16T03:50:11.015Z,100.00
2023-05-16T03:52:59.056Z,100.00
2023-05-16T03:55:48.635Z,100.00
2023-05-16T03:58:38.169Z,100.00
2023-05-16T04:01:26.179Z,100.00
2023-05-16T04:04:14.347Z,100.00
2023-05-16T04:07:02.669Z,100.00
2023-05-16T04:09:50.613Z,100.00
2023-05-16T04:12:38.641Z,100.00
2023-05-16T04:15:28.442Z,100.00
2023-05-16T04:18:16.731Z,100.00
2023-05-16T04:21:05.248Z,100.00
2023-05-16T04:23:53.377Z,100.00
2023-05-16T04:26:41.299Z,100.00
2023-05-16T04:29:29.276Z,100.00
2023-05-16T04:32:18.712Z,100.00
2023-05-16T04:35:09.216Z,100.00
2023-05-16T04:37:57.216Z,100.00
2023-05-16T04:40:45.694Z,100.00
2023-05-16T04:43:33.597Z,100.00
2023-05-16T04:46:22.114Z,100.00
2023-05-16T04:49:12.247Z,100.00
2023-05-16T04:52:00.255Z,100.00
2023-05-16T04:54:48.145Z,100.00
2023-05-16T04:57:36.088Z,100.00
2023-05-16T05:00:24.426Z,100.00
2023-05-16T05:03:12.575Z,100.00
2023-05-16T05:06:02.080Z,100.00
2023-05-16T05:08:50.450Z,100.00
2023-05-16T05:11:38.372Z,100.00
2023-05-16T05:14:26.338Z,100.00
2023-05-16T05:17:14.342Z,100.00
2023-05-16T05:20:03.284Z,100.00
2023-05-16T05:22:52.771Z,100.00
2023-05-16T05:25:41.117Z,100.00
2023-05-16T05:28:29.088Z,100.00
2023-05-16T05:31:17.095Z,100.00
2023-05-16T05:34:05.092Z,100.00
2023-05-16T05:36:52.975Z,100.00
2023-05-16T05:39:42.335Z,100.00
2023-05-16T05:42:31.540Z,100.00
2023-05-16T05:45:19.639Z,100.00
2023-05-16T05:48:08.257Z,100.00
2023-05-16T05:50:56.332Z,100.00
2023-05-16T05:53:44.642Z,100.00
2023-05-16T05:56:34.361Z,100.00
2023-05-16T05:59:22.311Z,99.71
2023-05-16T06:02:10.552Z,100.00
2023-05-16T06:04:58.567Z,100.00
2023-05-16T06:07:46.550Z,100.00
2023-05-16T06:10:34.469Z,100.00
2023-05-16T06:13:23.848Z,100.00
2023-05-16T06:16:11.801Z,100.00
2023-05-16T06:18:59.754Z,100.00
2023-05-16T06:21:47.735Z,100.00
2023-05-16T06:24:35.968Z,100.00
2023-05-16T06:27:23.932Z,100.00
2023-05-16T06:30:13.843Z,100.00
2023-05-16T06:33:01.891Z,100.00
2023-05-16T06:35:49.943Z,100.00
2023-05-16T06:38:37.993Z,100.00
2023-05-16T06:41:26.479Z,100.00
2023-05-16T06:44:14.703Z,100.00
2023-05-16T06:47:04.191Z,100.00
2023-05-16T06:49:52.239Z,100.00
2023-05-16T06:52:42.567Z,100.00
2023-05-16T06:55:33.437Z,100.00
2023-05-16T06:58:21.787Z,100.00
2023-05-16T07:01:09.813Z,98.94
2023-05-16T07:03:59.361Z,98.74
2023-05-16T07:06:47.536Z,100.00
2023-05-16T07:09:35.684Z,100.00
2023-05-16T07:12:23.668Z,99.90
2023-05-16T07:15:13.283Z,100.00
2023-05-16T07:18:01.406Z,100.00
2023-05-16T07:20:51.130Z,100.00
2023-05-16T07:23:39.175Z,100.00
2023-05-16T07:26:27.170Z,98.73
2023-05-16T07:29:15.668Z,100.00
2023-05-16T07:32:03.719Z,100.00
2023-05-16T07:34:51.808Z,100.00
2023-05-16T07:37:42.606Z,99.25
2023-05-16T07:40:30.620Z,97.25
2023-05-16T07:43:18.621Z,99.08
2023-05-16T07:46:07.008Z,95.33
2023-05-16T07:48:55.097Z,96.21
2023-05-16T07:51:43.097Z,94.36
2023-05-16T07:54:33.353Z,99.88
2023-05-16T07:57:22.745Z,99.57
2023-05-16T08:00:13.691Z,96.22
2023-05-16T08:03:01.852Z,99.24
2023-05-16T08:05:50.270Z,99.42
2023-05-16T08:08:38.490Z,94.72
2023-05-16T08:11:27.981Z,93.78
2023-05-16T08:14:15.975Z,96.58
2023-05-16T08:17:04.030Z,94.89
2023-05-16T08:19:51.988Z,94.72
2023-05-16T08:22:40.200Z,94.93
2023-05-16T08:25:28.520Z,93.87
2023-05-16T08:28:18.135Z,93.07
2023-05-16T08:31:06.200Z,95.44
2023-05-16T08:33:54.231Z,94.03
2023-05-16T08:36:42.232Z,94.19
2023-05-16T08:39:30.761Z,92.95
2023-05-16T08:42:18.764Z,93.16
2023-05-16T08:45:09.435Z,93.21
2023-05-16T08:47:57.694Z,92.28
2023-05-16T08:50:45.737Z,91.79
2023-05-16T08:53:41.268Z,90.05
2023-05-16T08:56:29.504Z,89.79
2023-05-16T08:59:17.784Z,91.15
2023-05-16T09:02:07.861Z,90.71
2023-05-16T09:04:58.581Z,89.27
2023-05-16T09:07:47.276Z,87.58
2023-05-16T09:10:35.476Z,86.96
2023-05-16T09:13:23.502Z,85.43
2023-05-16T09:16:13.517Z,86.04
2023-05-16T09:19:04.526Z,86.24
2023-05-16T09:21:52.776Z,84.58
2023-05-16T09:24:41.149Z,84.67
2023-05-16T09:27:32.214Z,80.25
2023-05-16T09:30:23.218Z,77.68
2023-05-16T09:33:11.310Z,82.11
2023-05-16T09:36:02.322Z,81.43
2023-05-16T09:38:52.934Z,81.15
2023-05-16T09:41:41.181Z,80.17
2023-05-16T09:44:29.869Z,80.20
2023-05-16T09:47:18.597Z,80.75
2023-05-16T09:50:07.906Z,81.07
2023-05-16T09:52:58.306Z,80.76
2023-05-16T09:55:46.356Z,82.63
2023-05-16T09:58:36.243Z,83.62
2023-05-16T10:01:25.039Z,84.48
2023-05-16T10:04:16.123Z,85.36
2023-05-16T10:07:05.613Z,85.55
2023-05-16T10:09:57.265Z,85.39
2023-05-16T10:12:46.328Z,85.38
2023-05-16T10:15:35.606Z,85.28
2023-05-16T10:18:26.531Z,86.85
2023-05-16T10:21:17.065Z,86.47
2023-05-16T10:24:08.224Z,87.24
2023-05-16T10:26:57.892Z,87.70
2023-05-16T10:29:54.217Z,87.27
2023-05-16T10:32:43.383Z,87.24
2023-05-16T10:35:32.829Z,87.16
2023-05-16T10:38:22.498Z,86.30
2023-05-16T10:41:11.419Z,86.09
2023-05-16T10:44:02.520Z,85.56
2023-05-16T10:46:50.639Z,85.44
2023-05-16T10:49:42.459Z,85.02
2023-05-16T10:52:35.042Z,84.63
2023-05-16T10:55:23.486Z,84.76
2023-05-16T10:58:11.413Z,84.40
2023-05-16T11:01:21.826Z,83.83
2023-05-16T11:04:12.953Z,83.75
2023-05-16T11:07:02.478Z,83.91
2023-05-16T11:10:08.282Z,83.89
2023-05-16T11:12:58.342Z,84.19
2023-05-16T11:15:46.451Z,83.61
2023-05-16T11:18:35.950Z,83.82
2023-05-16T11:21:24.005Z,82.90
2023-05-16T11:24:31.276Z,81.94
2023-05-16T11:27:24.767Z,80.82
2023-05-16T11:30:15.662Z,81.01
2023-05-16T11:33:04.340Z,81.05
2023-05-16T11:36:15.914Z,81.51
2023-05-16T11:39:09.542Z,80.23
2023-05-16T11:41:57.639Z,80.19
2023-05-16T11:44:46.002Z,80.67
2023-05-16T11:47:34.080Z,80.01
2023-05-16T11:50:24.624Z,80.15
2023-05-16T11:53:14.545Z,79.99
2023-05-16T11:56:03.594Z,79.29
2023-05-16T11:58:51.902Z,79.65
2023-05-16T12:01:41.557Z,80.07
2023-05-16T12:04:29.684Z,81.13
2023-05-16T12:07:17.783Z,81.16
2023-05-16T12:10:09.012Z,81.33
2023-05-16T12:12:57.482Z,81.33
2023-05-16T12:15:45.770Z,81.96
2023-05-16T12:18:33.834Z,82.30
2023-05-16T12:21:23.598Z,83.42
2023-05-16T12:24:13.321Z,84.82
2023-05-16T12:27:02.683Z,84.99
2023-05-16T12:29:51.667Z,85.09
2023-05-16T12:32:39.995Z,84.90
2023-05-16T12:35:32.282Z,83.70
2023-05-16T12:38:21.565Z,85.29
2023-05-16T12:41:10.338Z,84.22
2023-05-16T12:44:13.495Z,83.91
2023-05-16T12:47:01.478Z,83.15
2023-05-16T12:49:51.368Z,82.42
2023-05-16T12:52:39.408Z,82.80
2023-05-16T12:55:27.503Z,82.58
2023-05-16T12:58:16.467Z,82.72
2023-05-16T13:01:06.602Z,83.22
2023-05-16T13:03:54.952Z,84.11
2023-05-16T13:06:57.798Z,84.34
2023-05-16T13:09:47.509Z,83.86
2023-05-16T13:12:35.413Z,84.53
2023-05-16T13:15:23.508Z,84.15
2023-05-16T13:18:12.996Z,83.28
2023-05-16T13:21:01.102Z,83.36
2023-05-16T13:23:49.090Z,83.70
2023-05-16T13:26:37.521Z,84.21
2023-05-16T13:29:25.586Z,83.37
2023-05-16T13:32:13.850Z,82.99
2023-05-16T13:35:04.080Z,80.42
2023-05-16T13:37:53.460Z,81.57
2023-05-16T13:40:44.543Z,80.13
2023-05-16T13:43:32.597Z,80.81
2023-05-16T13:46:20.742Z,82.25
2023-05-16T13:49:08.800Z,83.44
2023-05-16T13:51:58.666Z,84.51
2023-05-16T13:54:46.616Z,84.37
2023-05-16T13:57:34.759Z,85.72
2023-05-16T14:03:13.813Z,86.52
2023-05-16T14:06:02.017Z,86.11
2023-05-16T14:08:51.868Z,85.93
2023-05-16T14:11:40.066Z,86.64
2023-05-16T14:14:28.032Z,85.59
2023-05-16T14:17:16.258Z,85.29
2023-05-16T14:20:06.091Z,86.57
2023-05-16T14:22:54.289Z,86.47
2023-05-16T14:25:43.674Z,86.54
2023-05-16T14:28:32.838Z,86.18
2023-05-16T14:31:21.396Z,85.45
2023-05-16T14:34:09.436Z,86.50
2023-05-16T14:36:57.438Z,85.88
2023-05-16T14:39:46.651Z,86.10
2023-05-16T14:42:36.102Z,87.05
2023-05-16T14:45:24.105Z,86.94
2023-05-16T14:48:12.237Z,87.39
2023-05-16T14:51:00.329Z,88.64
2023-05-16T14:53:48.403Z,89.29
2023-05-16T14:56:36.537Z,90.17
2023-05-16T14:59:26.240Z,88.83
2023-05-16T15:02:14.321Z,88.62
2023-05-16T15:05:02.443Z,88.95
2023-05-16T15:07:51.314Z,89.56
2023-05-16T15:10:39.420Z,91.10
2023-05-16T15:13:27.390Z,90.80
2023-05-16T15:16:16.909Z,91.89
2023-05-16T15:19:05.258Z,92.46
2023-05-16T15:21:53.287Z,93.28
2023-05-16T15:24:41.365Z,94.23
2023-05-16T15:27:29.640Z,93.47
2023-05-16T15:30:17.579Z,92.01
2023-05-16T15:33:07.046Z,92.14
2023-05-16T15:35:55.010Z,91.31
2023-05-16T15:38:45.632Z,90.54
2023-05-16T15:42:00.641Z,91.35
2023-05-16T15:44:42.051Z,91.46
2023-05-16T15:47:30.114Z,91.28
2023-05-16T15:50:19.555Z,91.77
2023-05-16T15:53:07.583Z,90.99
2023-05-16T15:55:56.470Z,90.48
2023-05-16T15:58:46.821Z,90.92
2023-05-16T16:01:34.933Z,90.01
2023-05-16T16:04:23.848Z,90.81
2023-05-16T16:07:13.771Z,91.21
2023-05-16T16:10:01.756Z,92.87
2023-05-16T16:13:00.413Z,94.08
2023-05-16T16:15:48.559Z,94.48
2023-05-16T16:18:36.643Z,95.18
2023-05-16T16:21:24.933Z,95.35
2023-05-16T16:24:15.218Z,96.72
2023-05-16T16:27:03.259Z,96.97
2023-05-16T16:29:51.261Z,97.76
2023-05-16T16:32:39.795Z,98.54
2023-05-16T16:35:28.447Z,99.83
2023-05-16T16:38:17.572Z,99.40
2023-05-16T16:41:06.950Z,98.08
2023-05-16T16:43:54.950Z,97.11
2023-05-16T16:46:43.037Z,97.28
2023-05-16T16:49:31.523Z,97.86
2023-05-16T16:52:19.626Z,99.17
2023-05-16T16:55:08.918Z,99.41
2023-05-16T16:57:58.353Z,99.48
2023-05-16T17:00:46.390Z,100.00
2023-05-16T17:03:34.435Z,100.00
2023-05-16T17:06:22.488Z,100.00
2023-05-16T17:09:13.985Z,100.00
2023-05-16T17:12:07.948Z,100.00
2023-05-16T17:14:57.367Z,100.00
2023-05-16T17:17:46.048Z,100.00
2023-05-16T17:20:34.512Z,100.00
2023-05-16T17:23:22.553Z,99.70
2023-05-16T17:26:10.618Z,98.48
2023-05-16T17:29:00.257Z,95.90
2023-05-16T17:31:49.757Z,94.56
2023-05-16T17:34:37.912Z,92.96
2023-05-16T17:37:26.592Z,92.08
2023-05-16T17:40:17.222Z,89.18
2023-05-16T17:43:05.657Z,88.85
2023-05-16T17:45:53.751Z,91.23
2023-05-16T17:48:43.751Z,91.10
2023-05-16T17:51:46.589Z,90.80
2023-05-16T17:54:34.573Z,92.85
2023-05-16T17:57:22.578Z,91.74
2023-05-16T18:00:11.546Z,92.72
2023-05-16T18:02:59.943Z,91.34
2023-05-16T18:05:49.684Z,92.36
2023-05-16T18:08:37.803Z,91.60
2023-05-16T18:11:26.108Z,89.78
2023-05-16T18:14:15.622Z,87.20
2023-05-16T18:17:03.922Z,86.89
2023-05-16T18:19:52.763Z,86.26
2023-05-16T18:22:43.013Z,85.98
2023-05-16T18:25:31.701Z,86.28
2023-05-16T18:28:19.809Z,86.92
2023-05-16T18:31:08.044Z,87.21
2023-05-16T18:33:56.499Z,87.40
2023-05-16T18:36:44.883Z,87.40
2023-05-16T18:39:34.416Z,86.01
2023-05-16T18:42:22.570Z,85.75
2023-05-16T18:45:11.482Z,85.42
2023-05-16T18:47:59.673Z,85.00
2023-05-16T18:50:48.158Z,85.25
2023-05-16T18:53:36.642Z,84.98
2023-05-16T18:56:26.875Z,85.48
2023-05-16T18:59:15.173Z,85.85
2023-05-16T19:02:04.607Z,86.80
2023-05-16T19:04:53.345Z,86.58
2023-05-16T19:07:41.702Z,87.63
2023-05-16T19:10:30.110Z,88.39
2023-05-16T19:13:19.975Z,88.90
2023-05-16T19:16:08.528Z,89.25
2023-05-16T19:18:58.364Z,89.50
2023-05-16T19:21:47.943Z,90.17
2023-05-16T19:24:36.317Z,91.08
2023-05-16T19:27:24.718Z,91.21
2023-05-16T19:30:14.920Z,91.85
2023-05-16T19:33:03.614Z,90.69
2023-05-16T19:35:53.891Z,91.10
2023-05-16T19:38:42.332Z,94.00
2023-05-16T19:41:31.294Z,95.99
2023-05-16T19:44:19.717Z,97.31
2023-05-16T19:47:09.799Z,99.78
2023-05-16T19:49:58.367Z,100.00
2023-05-16T19:52:46.862Z,100.00
2023-05-16T19:55:38.148Z,100.00
2023-05-16T19:58:26.796Z,100.00
2023-05-16T20:01:15.560Z,100.00
2023-05-16T20:04:05.691Z,100.00
2023-05-16T20:06:54.025Z,100.00
2023-05-16T20:09:42.168Z,100.00
2023-05-16T20:12:30.469Z,100.00
2023-05-16T20:15:19.104Z,100.00
2023-05-16T20:18:07.416Z,100.00
2023-05-16T20:20:58.572Z,100.00
2023-05-16T20:23:46.898Z,100.00
2023-05-16T20:26:34.901Z,100.00
2023-05-16T20:29:22.910Z,100.00
2023-05-16T20:32:10.995Z,100.00
2023-05-16T20:34:59.159Z,100.00
2023-05-16T20:37:48.545Z,100.00
2023-05-16T20:40:36.584Z,100.00
2023-05-16T20:43:26.604Z,100.00
2023-05-16T20:46:14.915Z,100.00
2023-05-16T20:49:02.986Z,100.00
2023-05-16T20:51:51.119Z,100.00
2023-05-16T20:54:41.840Z,100.00
2023-05-16T20:57:29.853Z,100.00
2023-05-16T21:00:18.187Z,100.00
2023-05-16T21:03:06.340Z,100.00
2023-05-16T21:05:54.377Z,100.00
2023-05-16T21:08:42.335Z,100.00
2023-05-16T21:11:32.939Z,100.00
2023-05-16T21:14:20.956Z,100.00
2023-05-16T21:17:08.987Z,100.00
2023-05-16T21:19:57.044Z,100.00
2023-05-16T21:22:45.226Z,100.00
2023-05-16T21:25:33.467Z,100.00
2023-05-16T21:28:22.813Z,100.00
2023-05-16T21:31:10.792Z,100.00
2023-05-16T21:33:58.842Z,100.00
2023-05-16T21:36:46.853Z,100.00
2023-05-16T21:39:34.785Z,100.00
2023-05-16T21:42:22.790Z,100.00
2023-05-16T21:45:16.556Z,100.00
2023-05-16T21:48:04.957Z,100.00
2023-05-16T21:50:53.047Z,100.00
2023-05-16T21:53:40.996Z,100.00
2023-05-16T21:56:29.237Z,100.00
2023-05-16T21:59:17.264Z,100.00
2023-05-16T22:02:07.869Z,100.00
2023-05-16T22:04:55.991Z,100.00
2023-05-16T22:07:44.424Z,100.00
2023-05-16T22:10:32.518Z,100.00
2023-05-16T22:13:20.702Z,100.00
2023-05-16T22:16:08.746Z,100.00
2023-05-16T22:18:58.267Z,100.00
2023-05-16T22:21:46.244Z,100.00
2023-05-16T22:24:34.360Z,100.00
2023-05-16T22:27:22.436Z,100.00
2023-05-16T22:30:10.862Z,100.00
2023-05-16T22:32:58.954Z,100.00
2023-05-16T22:35:48.483Z,100.00
2023-05-16T22:38:36.484Z,100.00
2023-05-16T22:41:24.504Z,100.00
2023-05-16T22:44:12.503Z,100.00
2023-05-16T22:47:00.614Z,100.00
2023-05-16T22:49:48.627Z,100.00
2023-05-16T22:52:41.197Z,100.00
2023-05-16T22:55:29.542Z,100.00
2023-05-16T22:58:17.921Z,100.00
2023-05-16T23:01:06.019Z,100.00
2023-05-16T23:03:54.041Z,100.00
2023-05-16T23:06:42.094Z,100.00
2023-05-16T23:09:31.497Z,100.00
2023-05-16T23:12:21.262Z,100.00
2023-05-16T23:15:10.509Z,100.00
2023-05-16T23:17:58.657Z,100.00
2023-05-16T23:20:46.982Z,100.00
2023-05-16T23:23:35.145Z,100.00
2023-05-16T23:26:24.617Z,100.00
2023-05-16T23:29:12.629Z,100.00
2023-05-16T23:32:00.591Z,100.00
2023-05-16T23:34:48.609Z,100.00
2023-05-16T23:37:36.855Z,100.00
2023-05-16T23:40:24.817Z,100.00
2023-05-16T23:43:14.240Z,100.00
2023-05-16T23:46:02.254Z,100.00
2023-05-16T23:48:50.498Z,100.00
2023-05-16T23:51:52.791Z,100.00
2023-05-16T23:54:45.485Z,100.00
2023-05-16T23:57:33.463Z,100.00
